Terminal Aerodrome Forecast
Issued by NWS Cleveland, OH

Home | Current Version | Previous Version | Text Only | Print | Product List | Glossary Off
Versions: 1 2 3 4 5 6 7 8 9 10 11 12 13 14 15

401
FTUS41 KCLE 221736
TAFCAK
TAF
KCAK 221736Z 2218/2318 20005KT P6SM BKN250
     FM230100 VRB03KT P6SM BKN200
     FM231600 33006KT P6SM SCT045=

USA.gov is the U.S. government's official web portal to all federal, state and local government web resources and services.